Avon, Maine
Current Conditions -  °F | °C
As of 7:15 PM on Saturday 25 Oct 2014 (Local Time) from KWVL Reporting Station
Clear Clear  
Wind Chill: 52°   Ceiling: Unl
Heat Index: 52°   Visibility: 10mi
Dew Point: 39°   Wind: 5mph
Humidity: 62%   Direction: 210°SSW
Pressure: 29.51"   Gusts: NA
Location:  44.8921°N, 70.379°W
Report Text: KWVL 252315Z 21004KT 10SM CLR 11/04 A2951 RMK AO1
Loading
Personal Weather Stations






























Interactive Weather Map
Tropical Storm Tracking
New forecast layout! Learn more

10-Day Weather Forecast

Advertisements
Track Severe Weather on mobile